Time;durP1;ratioP1;P1;durP2;ratioP2;P2;SDS_P1;SDS_P2;PMS_P1;PMS_P2;Temp;Humidity;BMP_temperature;BMP_pressure;BME280_temperature;BME280_humidity;BME280_pressure;Samples;Min_cycle;Max_cycle;Signal;HPM_P1;HPM_P2
2023/02/08 00:00:43;;;;;;;34.57;18.23;;;0.00;73.70;;;;;;5043418;28;20262;-66
2023/02/08 00:03:11;;;;;;;36.50;21.60;;;0.00;73.80;;;;;;5031749;28;20192;-66
2023/02/08 00:05:38;;;;;;;30.63;19.33;;;-0.10;73.90;;;;;;5029294;28;20242;-66
2023/02/08 00:08:06;;;;;;;35.07;20.87;;;-0.10;74.00;;;;;;5034076;28;20212;-66
2023/02/08 00:10:34;;;;;;;34.83;22.17;;;-0.10;74.90;;;;;;5042158;28;20623;-66
2023/02/08 00:13:01;;;;;;;37.83;21.17;;;-0.10;74.50;;;;;;5037033;28;20203;-66
2023/02/08 00:15:28;;;;;;;34.50;20.47;;;-0.10;74.60;;;;;;5033749;28;20293;-66
2023/02/08 00:17:55;;;;;;;36.07;20.73;;;-0.10;74.60;;;;;;5036608;28;20213;-66
2023/02/08 00:20:22;;;;;;;37.33;20.43;;;-0.10;74.70;;;;;;5037213;28;20305;-67
2023/02/08 00:22:49;;;;;;;38.20;19.97;;;-0.10;74.70;;;;;;5036246;28;20654;-67
2023/02/08 00:25:19;;;;;;;38.50;19.83;;;-0.10;74.50;;;;;;5035295;28;20230;-67
2023/02/08 00:27:46;;;;;;;35.90;22.13;;;-0.20;74.50;;;;;;5030605;28;20211;-66
2023/02/08 00:30:13;;;;;;;31.13;20.57;;;-0.20;74.60;;;;;;5034503;28;20204;-66
2023/02/08 00:32:40;;;;;;;37.03;21.47;;;-0.20;74.70;;;;;;5035931;28;20222;-66
2023/02/08 00:35:07;;;;;;;34.03;20.53;;;-0.20;74.70;;;;;;5037370;28;20213;-67
2023/02/08 00:37:34;;;;;;;38.93;21.60;;;-0.20;74.90;;;;;;5039303;28;20320;-67
2023/02/08 00:40:04;;;;;;;35.13;20.73;;;-0.20;75.00;;;;;;5039774;28;20204;-67
2023/02/08 00:42:32;;;;;;;35.60;20.23;;;-0.10;75.10;;;;;;5037164;28;20207;-67
2023/02/08 00:44:59;;;;;;;36.83;20.87;;;-0.10;75.20;;;;;;5033838;28;20574;-67
2023/02/08 00:47:26;;;;;;;38.70;20.93;;;0.00;75.10;;;;;;5036754;28;20522;-67
2023/02/08 00:49:53;;;;;;;32.70;19.97;;;0.00;74.90;;;;;;5033604;28;20225;-67
2023/02/08 00:52:21;;;;;;;31.93;19.47;;;0.00;74.80;;;;;;5035844;28;20209;-66
2023/02/08 00:54:48;;;;;;;33.53;19.40;;;0.00;74.70;;;;;;5033667;28;20203;-67
2023/02/08 00:57:15;;;;;;;35.37;19.13;;;0.00;74.80;;;;;;5029621;28;20256;-67
2023/02/08 00:59:42;;;;;;;35.00;18.67;;;0.00;74.70;;;;;;5038912;28;20232;-67
2023/02/08 01:02:09;;;;;;;32.43;20.07;;;0.00;74.50;;;;;;5040823;28;20199;-67
2023/02/08 01:04:37;;;;;;;33.87;19.00;;;0.00;74.20;;;;;;5036433;28;20286;-66
2023/02/08 01:07:06;;;;;;;26.77;17.00;;;0.00;74.40;;;;;;5033684;28;20229;-67
2023/02/08 01:09:33;;;;;;;31.80;19.97;;;0.00;74.60;;;;;;5020075;28;20299;-66
2023/02/08 01:12:00;;;;;;;30.00;18.50;;;0.00;74.50;;;;;;5035221;28;20204;-66
2023/02/08 01:14:27;;;;;;;30.77;19.03;;;-0.10;74.30;;;;;;5033168;28;20224;-67
2023/02/08 01:16:54;;;;;;;29.03;18.20;;;-0.10;74.20;;;;;;5037123;28;20236;-67
2023/02/08 01:19:22;;;;;;;31.23;18.90;;;-0.10;74.30;;;;;;5033407;28;20235;-66
2023/02/08 01:21:49;;;;;;;31.03;18.30;;;-0.10;74.50;;;;;;5028484;28;20216;-67
2023/02/08 01:24:16;;;;;;;31.00;17.67;;;-0.10;74.60;;;;;;5032910;28;20200;-67
2023/02/08 01:26:43;;;;;;;27.20;17.43;;;-0.10;74.40;;;;;;5032545;28;20203;-67
2023/02/08 01:29:10;;;;;;;31.30;17.97;;;-0.10;74.40;;;;;;5036288;28;20550;-67
2023/02/08 01:31:40;;;;;;;28.77;17.80;;;-0.10;74.30;;;;;;5035752;28;20214;-67
2023/02/08 01:34:08;;;;;;;23.03;15.40;;;0.00;74.20;;;;;;5034869;28;20540;-67
2023/02/08 01:36:36;;;;;;;29.80;17.03;;;0.00;74.10;;;;;;5034090;28;20235;-67
2023/02/08 01:39:04;;;;;;;29.67;16.53;;;0.00;73.80;;;;;;5034351;28;20547;-67
2023/02/08 01:41:34;;;;;;;26.50;15.80;;;0.00;73.50;;;;;;5030468;28;20203;-67
2023/02/08 01:44:10;;;;;;;28.77;17.07;;;0.00;74.00;;;;;;5032415;28;20530;-66
2023/02/08 01:46:46;;;;;;;27.33;17.10;;;-0.10;73.40;;;;;;5034642;28;20191;-67
2023/02/08 01:49:13;;;;;;;28.30;16.60;;;-0.10;73.60;;;;;;5031687;28;20191;-67
2023/02/08 01:51:48;;;;;;;30.03;17.00;;;-0.20;73.80;;;;;;5027495;28;20204;-67
2023/02/08 01:54:18;;;;;;;26.30;16.67;;;-0.20;74.10;;;;;;5040866;28;20556;-67
2023/02/08 01:56:46;;;;;;;42.83;18.30;;;-0.20;73.90;;;;;;5036080;28;20238;-67
2023/02/08 01:59:22;;;;;;;27.70;16.30;;;-0.30;73.60;;;;;;5036992;28;20300;-67
2023/02/08 02:01:51;;;;;;;24.07;16.97;;;-0.40;73.60;;;;;;5033402;28;20208;-67
2023/02/08 02:04:19;;;;;;;28.77;15.83;;;-0.50;73.90;;;;;;5035337;28;20553;-67
2023/02/08 02:06:55;;;;;;;26.77;17.60;;;-0.50;74.30;;;;;;5023802;28;20257;-67
2023/02/08 02:09:51;;;;;;;30.60;17.13;;;-0.60;74.60;;;;;;5036146;28;20201;-66
2023/02/08 02:12:19;;;;;;;25.73;16.33;;;-0.60;74.80;;;;;;5039167;28;20641;-67
2023/02/08 02:14:46;;;;;;;25.57;16.40;;;-0.70;74.90;;;;;;5020767;28;20223;-67
2023/02/08 02:17:15;;;;;;;30.27;16.27;;;-0.70;75.10;;;;;;5037527;28;20232;-66
2023/02/08 02:19:48;;;;;;;27.27;17.23;;;-0.70;75.00;;;;;;5034127;28;20627;-67
2023/02/08 02:22:30;;;;;;;31.23;16.67;;;-0.80;74.90;;;;;;5036814;28;20413;-66
2023/02/08 02:25:39;;;;;;;25.17;16.77;;;-0.80;75.20;;;;;;5026467;28;20632;-67
2023/02/08 02:28:38;;;;;;;27.60;15.90;;;-0.80;75.20;;;;;;5019799;28;20207;-66
2023/02/08 02:31:11;;;;;;;28.50;17.57;;;-0.80;75.40;;;;;;5039077;28;20558;-67
2023/02/08 02:33:57;;;;;;;30.23;17.17;;;-0.80;75.40;;;;;;5039833;28;20534;-66
2023/02/08 02:36:49;;;;;;;24.20;15.70;;;-0.80;75.40;;;;;;5034996;28;20516;-66
2023/02/08 02:39:40;;;;;;;27.83;16.57;;;-0.80;75.50;;;;;;5035423;28;20298;-67
2023/02/08 02:45:59;;;;;;;26.73;16.77;;;-0.90;75.10;;;;;;5013115;28;20215;-66
2023/02/08 02:48:37;;;;;;;30.53;15.77;;;-0.90;75.20;;;;;;5043531;28;20219;-66
2023/02/08 02:51:19;;;;;;;32.17;17.70;;;-0.90;75.30;;;;;;5040213;28;20235;-66
2023/02/08 02:54:18;;;;;;;30.73;16.97;;;-0.90;75.20;;;;;;5035375;28;20218;-66
2023/02/08 02:56:49;;;;;;;29.90;17.07;;;-1.00;75.10;;;;;;5038925;28;20272;-66
2023/02/08 02:59:18;;;;;;;30.13;16.27;;;-1.00;75.40;;;;;;5038927;28;20195;-66
2023/02/08 03:01:45;;;;;;;29.77;15.57;;;-1.00;75.50;;;;;;5033492;28;20261;-67
2023/02/08 03:04:38;;;;;;;26.37;16.57;;;-1.00;75.30;;;;;;5041215;28;20196;-66
2023/02/08 03:07:14;;;;;;;25.53;16.30;;;-1.00;75.40;;;;;;5028341;28;20624;-66
2023/02/08 03:10:23;;;;;;;32.70;17.40;;;-1.10;75.30;;;;;;5040700;28;20214;-66
2023/02/08 03:12:50;;;;;;;28.20;15.93;;;-1.10;75.40;;;;;;5039407;28;20268;-66
2023/02/08 03:15:55;;;;;;;27.70;16.47;;;-1.20;75.40;;;;;;5041913;28;20549;-66
2023/02/08 03:18:42;;;;;;;26.00;15.00;;;-1.20;75.60;;;;;;5035947;28;20594;-66
2023/02/08 03:21:28;;;;;;;26.80;16.40;;;-1.20;75.50;;;;;;5037512;28;20348;-66
2023/02/08 03:24:17;;;;;;;23.93;15.20;;;-1.20;75.50;;;;;;5041233;28;20199;-66
2023/02/08 03:27:03;;;;;;;31.83;16.57;;;-1.20;75.60;;;;;;5040176;28;20195;-65
2023/02/08 03:30:02;;;;;;;29.30;17.30;;;-1.30;75.60;;;;;;5038007;28;20524;-66
2023/02/08 03:32:41;;;;;;;30.30;16.30;;;-1.30;75.70;;;;;;5032388;28;20357;-65
2023/02/08 03:35:26;;;;;;;31.83;16.40;;;-1.30;75.90;;;;;;5040098;28;20192;-65
2023/02/08 03:37:55;;;;;;;28.43;17.23;;;-1.30;76.10;;;;;;5030864;28;20586;-65
2023/02/08 03:40:34;;;;;;;32.83;17.23;;;-1.40;76.20;;;;;;5033487;28;20256;-65
2023/02/08 03:43:09;;;;;;;28.40;17.60;;;-1.30;76.60;;;;;;5042608;28;20213;-65
2023/02/08 03:45:42;;;;;;;23.47;15.07;;;-1.30;76.30;;;;;;5041957;28;20259;-65
2023/02/08 03:48:12;;;;;;;27.87;16.67;;;-1.30;76.20;;;;;;5040359;28;20207;-65
2023/02/08 03:50:42;;;;;;;30.50;17.33;;;-1.30;76.30;;;;;;5038138;28;20217;-65
2023/02/08 03:53:10;;;;;;;31.40;17.30;;;-1.30;76.50;;;;;;5033616;28;20208;-65
2023/02/08 03:55:39;;;;;;;27.83;16.33;;;-1.30;76.60;;;;;;5033686;28;20699;-65
2023/02/08 03:58:16;;;;;;;33.77;16.47;;;-1.30;76.60;;;;;;5039556;28;20275;-64
2023/02/08 04:00:50;;;;;;;26.67;16.57;;;-1.30;76.60;;;;;;5023437;28;20230;-64
2023/02/08 04:03:24;;;;;;;28.43;16.33;;;-1.30;76.60;;;;;;5032595;28;20200;-65
2023/02/08 04:05:52;;;;;;;29.77;17.03;;;-1.30;76.60;;;;;;5029540;28;20240;-64
2023/02/08 04:08:20;;;;;;;29.33;16.83;;;-1.30;76.40;;;;;;5036855;28;20272;-64
2023/02/08 04:10:48;;;;;;;32.00;18.10;;;-1.40;76.30;;;;;;5041876;28;20199;-64
2023/02/08 04:13:15;;;;;;;25.47;15.93;;;-1.40;76.40;;;;;;5035954;28;20210;-64
2023/02/08 04:15:43;;;;;;;28.03;16.00;;;-1.40;76.60;;;;;;5041687;28;20196;-64
2023/02/08 04:18:10;;;;;;;29.10;15.77;;;-1.40;76.30;;;;;;5036758;28;20217;-64
2023/02/08 04:20:37;;;;;;;26.73;15.77;;;-1.40;75.90;;;;;;5036988;28;20203;-64
2023/02/08 04:23:04;;;;;;;25.37;16.13;;;-1.50;76.10;;;;;;5039275;28;20208;-64
2023/02/08 04:25:31;;;;;;;29.80;16.73;;;-1.50;76.20;;;;;;5034158;28;20198;-65
2023/02/08 04:27:58;;;;;;;25.63;15.23;;;-1.60;76.50;;;;;;5037966;28;20279;-64
2023/02/08 04:30:25;;;;;;;25.60;13.53;;;-1.60;76.70;;;;;;5043245;28;20275;-64
2023/02/08 04:32:52;;;;;;;25.40;15.87;;;-1.60;76.80;;;;;;5032349;28;20199;-64
2023/02/08 04:35:19;;;;;;;28.17;16.13;;;-1.60;76.80;;;;;;5044616;28;20224;-64
2023/02/08 04:37:46;;;;;;;27.27;16.23;;;-1.60;76.90;;;;;;5038382;28;20222;-64
2023/02/08 04:40:13;;;;;;;22.50;14.57;;;-1.60;77.10;;;;;;5040592;28;20204;-64
2023/02/08 04:42:40;;;;;;;26.90;16.57;;;-1.60;76.80;;;;;;5034870;28;20572;-64
2023/02/08 04:45:08;;;;;;;28.23;16.43;;;-1.70;76.90;;;;;;5038387;28;20211;-64
2023/02/08 04:47:35;;;;;;;28.47;16.50;;;-1.70;76.70;;;;;;5031018;28;20684;-64
2023/02/08 04:50:02;;;;;;;23.63;15.47;;;-1.70;77.00;;;;;;5035988;28;20236;-64
2023/02/08 04:52:29;;;;;;;29.00;15.27;;;-1.70;77.30;;;;;;5036577;28;20281;-64
2023/02/08 04:54:56;;;;;;;28.83;16.13;;;-1.70;77.40;;;;;;5031114;28;20285;-64
2023/02/08 04:57:23;;;;;;;24.73;15.23;;;-1.70;77.40;;;;;;5032882;28;20215;-64
2023/02/08 04:59:50;;;;;;;24.17;15.77;;;-1.70;77.40;;;;;;5039066;28;20269;-64
2023/02/08 05:02:17;;;;;;;25.53;16.07;;;-1.70;77.50;;;;;;5028748;28;20625;-64
2023/02/08 05:04:44;;;;;;;25.07;16.23;;;-1.70;77.60;;;;;;5039780;28;20199;-64
2023/02/08 05:07:11;;;;;;;23.97;15.77;;;-1.70;77.70;;;;;;5034803;28;20258;-64
2023/02/08 05:09:38;;;;;;;29.97;15.63;;;-1.70;77.70;;;;;;5039912;28;20199;-64
2023/02/08 05:12:05;;;;;;;29.97;16.10;;;-1.70;77.80;;;;;;5032190;28;20196;-64
2023/02/08 05:14:32;;;;;;;27.27;16.23;;;-1.60;77.90;;;;;;5036411;28;20211;-64
2023/02/08 05:16:59;;;;;;;26.90;15.90;;;-1.60;77.90;;;;;;5033540;28;20588;-64
2023/02/08 05:19:26;;;;;;;30.50;16.50;;;-1.60;77.90;;;;;;5034749;28;20254;-64
2023/02/08 05:21:53;;;;;;;22.80;14.73;;;-1.60;77.80;;;;;;5035723;28;20199;-64
2023/02/08 05:24:20;;;;;;;33.57;16.93;;;-1.60;77.90;;;;;;5032188;28;20586;-64
2023/02/08 05:26:47;;;;;;;28.70;16.10;;;-1.60;78.00;;;;;;5030917;28;20207;-64
2023/02/08 05:29:14;;;;;;;29.53;17.70;;;-1.70;77.80;;;;;;5035369;28;20215;-63
2023/02/08 05:31:41;;;;;;;31.60;17.07;;;-1.70;77.80;;;;;;5037230;28;20199;-64
2023/02/08 05:34:08;;;;;;;27.17;15.50;;;-1.70;77.70;;;;;;5037445;28;20308;-64
2023/02/08 05:36:35;;;;;;;27.23;16.53;;;-1.70;77.70;;;;;;5035974;28;20204;-64
2023/02/08 05:39:02;;;;;;;23.97;15.67;;;-1.70;77.80;;;;;;5037371;28;20285;-64
2023/02/08 05:41:29;;;;;;;31.20;15.87;;;-1.70;77.70;;;;;;5029268;28;20662;-63
2023/02/08 05:43:56;;;;;;;27.63;15.67;;;-1.80;77.60;;;;;;5030553;28;20206;-64
2023/02/08 05:46:23;;;;;;;27.97;17.77;;;-1.80;77.40;;;;;;5040101;28;20201;-64
2023/02/08 05:48:50;;;;;;;31.33;18.50;;;-1.80;77.30;;;;;;5027715;28;20294;-64
2023/02/08 05:51:19;;;;;;;26.13;16.60;;;-1.90;77.40;;;;;;5034016;28;20202;-63
2023/02/08 05:53:46;;;;;;;27.83;17.47;;;-1.90;77.80;;;;;;5033545;28;20199;-63
2023/02/08 05:56:13;;;;;;;29.20;17.17;;;-1.90;78.00;;;;;;5040876;28;20201;-63
2023/02/08 05:58:40;;;;;;;29.63;17.20;;;-1.90;78.20;;;;;;5038215;28;20621;-64
2023/02/08 06:01:12;;;;;;;24.37;15.73;;;-1.90;78.40;;;;;;5037604;28;20212;-63
2023/02/08 06:03:39;;;;;;;37.87;17.70;;;-1.80;78.40;;;;;;5035927;28;20636;-63
2023/02/08 06:06:09;;;;;;;29.60;17.60;;;-1.80;78.20;;;;;;5034485;28;20240;-63
2023/02/08 06:08:37;;;;;;;29.67;17.87;;;-1.80;78.30;;;;;;5037319;28;20199;-64
2023/02/08 06:11:05;;;;;;;29.93;19.90;;;-1.80;78.30;;;;;;5037749;28;20585;-63
2023/02/08 06:13:33;;;;;;;34.53;19.33;;;-1.80;78.30;;;;;;5026383;28;20209;-63
2023/02/08 06:16:00;;;;;;;35.37;17.90;;;-1.80;78.40;;;;;;5035957;28;20207;-63
2023/02/08 06:18:27;;;;;;;31.30;19.20;;;-1.80;78.50;;;;;;5035579;28;20632;-63
2023/02/08 06:20:54;;;;;;;29.90;17.87;;;-1.80;78.40;;;;;;5029401;28;20204;-63
2023/02/08 06:23:22;;;;;;;35.73;18.17;;;-1.70;78.50;;;;;;5036235;28;20188;-63
2023/02/08 06:25:49;;;;;;;30.17;18.40;;;-1.70;78.50;;;;;;5036570;28;20219;-63
2023/02/08 06:28:16;;;;;;;30.73;17.67;;;-1.70;78.50;;;;;;5038733;28;20283;-63
2023/02/08 06:30:44;;;;;;;33.50;19.13;;;-1.70;78.30;;;;;;5035803;28;20571;-63
2023/02/08 06:33:11;;;;;;;34.80;18.50;;;-1.70;78.10;;;;;;5037015;28;20587;-63
2023/02/08 06:35:47;;;;;;;27.80;19.13;;;-1.70;77.90;;;;;;5031185;28;20507;-64
2023/02/08 06:38:14;;;;;;;29.43;17.80;;;-1.80;77.70;;;;;;5032664;28;20681;-63
2023/02/08 06:40:41;;;;;;;34.03;18.20;;;-1.80;77.80;;;;;;5037824;28;20207;-63
2023/02/08 06:43:08;;;;;;;34.60;18.47;;;-1.80;78.10;;;;;;5027224;28;20207;-63
2023/02/08 06:45:35;;;;;;;32.60;18.47;;;-1.80;78.30;;;;;;5029891;28;20609;-63
2023/02/08 06:48:03;;;;;;;40.07;19.33;;;-1.70;78.50;;;;;;5039013;28;20235;-63
2023/02/08 06:50:30;;;;;;;31.13;18.20;;;-1.70;78.60;;;;;;5035583;28;20218;-63
2023/02/08 06:52:57;;;;;;;30.00;17.63;;;-1.60;78.70;;;;;;5039166;28;20204;-64
2023/02/08 06:55:24;;;;;;;35.43;17.97;;;-1.50;78.40;;;;;;5036416;28;20548;-63
2023/02/08 06:57:54;;;;;;;28.80;16.40;;;-1.40;77.80;;;;;;5034865;28;20209;-63
2023/02/08 07:00:21;;;;;;;32.70;18.93;;;-1.30;77.50;;;;;;5032457;28;20206;-63
2023/02/08 07:02:48;;;;;;;33.17;19.17;;;-1.20;77.60;;;;;;5036088;28;20212;-63
2023/02/08 07:05:15;;;;;;;35.07;18.50;;;-0.90;77.90;;;;;;5032814;28;20674;-63
2023/02/08 07:07:42;;;;;;;33.20;17.70;;;-0.70;76.60;;;;;;5028545;28;20201;-63
2023/02/08 07:10:09;;;;;;;41.33;18.67;;;-0.40;75.90;;;;;;5038573;28;20195;-63
2023/02/08 07:12:36;;;;;;;36.90;18.93;;;-0.10;74.70;;;;;;5038295;28;20226;-63
2023/02/08 07:15:03;;;;;;;31.47;17.77;;;0.20;73.40;;;;;;5031851;28;20196;-63
2023/02/08 07:17:30;;;;;;;33.60;16.90;;;0.50;72.60;;;;;;5041328;28;20199;-63
2023/02/08 07:19:57;;;;;;;32.73;17.10;;;0.70;71.90;;;;;;5036723;28;20225;-63
2023/02/08 07:22:24;;;;;;;26.27;16.47;;;0.80;71.20;;;;;;5038953;28;20214;-64
2023/02/08 07:24:51;;;;;;;29.47;17.73;;;1.00;70.80;;;;;;5035985;28;20194;-63
2023/02/08 07:27:18;;;;;;;29.83;16.73;;;1.20;70.60;;;;;;5041165;28;20665;-63
2023/02/08 07:29:45;;;;;;;30.57;17.47;;;1.50;69.90;;;;;;5036355;28;20193;-63
2023/02/08 07:32:12;;;;;;;34.47;19.43;;;1.80;69.10;;;;;;5037324;28;20215;-63
2023/02/08 07:34:40;;;;;;;39.60;18.60;;;2.10;68.00;;;;;;5037642;28;20297;-63
2023/02/08 07:37:07;;;;;;;32.00;17.07;;;2.40;67.10;;;;;;5034325;28;20206;-64
2023/02/08 07:39:34;;;;;;;32.43;18.00;;;2.70;66.30;;;;;;5032893;28;20625;-64
2023/02/08 07:42:02;;;;;;;35.30;17.87;;;3.00;65.60;;;;;;5039072;28;20610;-64
2023/02/08 07:44:36;;;;;;;33.63;18.30;;;3.20;65.10;;;;;;5056521;28;20294;-64
2023/02/08 07:47:05;;;;;;;25.73;16.57;;;3.20;64.60;;;;;;5038577;28;20192;-62
2023/02/08 07:49:32;;;;;;;31.30;18.27;;;3.00;65.10;;;;;;5036432;28;20576;-62
2023/02/08 07:52:00;;;;;;;30.03;17.93;;;2.80;65.80;;;;;;5036772;28;20199;-63
2023/02/08 07:55:19;;;;;;;27.67;17.13;;;2.70;66.30;;;;;;5033433;28;20655;-64
2023/02/08 07:59:26;;;;;;;25.83;16.43;;;2.60;66.80;;;;;;5035339;28;20227;-62
2023/02/08 08:02:43;;;;;;;28.43;16.97;;;2.60;67.70;;;;;;5036540;28;20201;-62
2023/02/08 08:05:10;;;;;;;33.27;17.57;;;2.50;68.10;;;;;;5035846;28;20260;-63
2023/02/08 08:07:37;;;;;;;34.40;18.00;;;2.50;68.40;;;;;;5030363;28;20206;-63
2023/02/08 08:10:05;;;;;;;27.43;17.00;;;2.40;68.80;;;;;;5037399;28;20213;-63
2023/02/08 08:12:32;;;;;;;34.13;18.37;;;2.40;69.40;;;;;;5041409;28;20604;-63
2023/02/08 08:14:59;;;;;;;29.87;17.03;;;2.40;70.20;;;;;;5041421;28;20221;-62
2023/02/08 08:17:26;;;;;;;26.60;17.00;;;2.30;70.80;;;;;;5038083;28;20221;-63
2023/02/08 08:19:55;;;;;;;26.00;16.40;;;2.40;71.20;;;;;;5039804;28;20230;-63
2023/02/08 08:22:22;;;;;;;29.90;16.80;;;2.40;71.50;;;;;;5038612;28;20244;-63
2023/02/08 08:24:49;;;;;;;31.20;17.40;;;2.40;71.50;;;;;;5032329;28;20197;-65
2023/02/08 08:27:16;;;;;;;25.97;16.40;;;2.50;71.40;;;;;;5037961;28;20256;-64
2023/02/08 08:29:43;;;;;;;26.40;16.53;;;2.50;71.10;;;;;;5032563;28;20217;-64
2023/02/08 08:32:10;;;;;;;31.80;17.80;;;2.50;70.80;;;;;;5036704;28;20223;-64
2023/02/08 08:34:37;;;;;;;24.37;16.13;;;2.50;71.30;;;;;;5039750;28;20220;-64
2023/02/08 08:37:04;;;;;;;32.03;17.17;;;2.60;71.80;;;;;;5033601;28;20510;-64
2023/02/08 08:39:32;;;;;;;30.93;15.63;;;2.70;72.10;;;;;;5042365;28;20584;-64
2023/02/08 08:42:00;;;;;;;26.30;16.37;;;2.80;71.50;;;;;;5039145;28;20735;-63
2023/02/08 08:44:27;;;;;;;30.13;17.23;;;2.80;70.80;;;;;;5039128;28;20202;-66
2023/02/08 08:46:58;;;;;;;27.70;16.70;;;2.80;70.40;;;;;;5036433;28;20258;-64
2023/02/08 08:49:27;;;;;;;33.70;17.37;;;2.90;70.50;;;;;;5038311;28;20209;-63
2023/02/08 08:51:54;;;;;;;28.30;16.33;;;2.90;70.40;;;;;;5039221;28;20266;-63
2023/02/08 08:54:22;;;;;;;28.67;17.20;;;3.10;70.50;;;;;;5028642;28;20645;-66
2023/02/08 08:56:49;;;;;;;27.00;15.97;;;3.20;70.00;;;;;;5033308;28;20629;-63
2023/02/08 08:59:16;;;;;;;24.43;16.70;;;3.30;69.50;;;;;;5040816;28;20632;-65
2023/02/08 09:01:43;;;;;;;24.80;15.90;;;3.40;69.40;;;;;;5033342;28;20232;-63
2023/02/08 09:04:10;;;;;;;28.93;15.83;;;3.50;69.00;;;;;;5040346;28;20206;-64
2023/02/08 09:06:37;;;;;;;26.13;16.40;;;3.60;68.30;;;;;;5035129;28;20269;-64
2023/02/08 09:09:05;;;;;;;29.10;16.87;;;3.70;68.30;;;;;;5041390;28;20205;-63
2023/02/08 09:11:32;;;;;;;26.23;16.20;;;3.80;67.90;;;;;;5033332;28;20208;-63
2023/02/08 09:14:03;;;;;;;28.83;16.17;;;4.00;67.90;;;;;;5037469;28;20207;-64
2023/02/08 09:16:32;;;;;;;28.43;17.40;;;4.10;67.90;;;;;;5028718;28;20230;-63
2023/02/08 09:19:04;;;;;;;23.47;15.80;;;4.20;67.90;;;;;;5034061;28;20261;-63
2023/02/08 09:21:31;;;;;;;25.43;16.57;;;4.30;67.40;;;;;;5037905;28;20338;-65
2023/02/08 09:24:00;;;;;;;25.33;15.03;;;4.40;67.10;;;;;;5034977;28;20206;-64
2023/02/08 09:26:28;;;;;;;29.67;16.20;;;4.60;66.70;;;;;;5035398;28;20217;-63
2023/02/08 09:28:55;;;;;;;25.90;15.90;;;4.60;66.00;;;;;;5039633;28;20605;-64
2023/02/08 09:31:28;;;;;;;28.43;16.80;;;4.70;65.70;;;;;;5033689;28;20643;-64
2023/02/08 09:33:58;;;;;;;25.33;14.90;;;4.70;65.50;;;;;;5040307;28;20201;-66
2023/02/08 09:36:28;;;;;;;29.63;17.10;;;4.80;65.30;;;;;;5035395;28;20205;-65
2023/02/08 09:38:59;;;;;;;31.53;17.97;;;4.90;65.30;;;;;;5037137;28;20219;-64
2023/02/08 09:41:38;;;;;;;29.37;16.43;;;5.00;65.30;;;;;;5032675;28;20223;-65
2023/02/08 09:44:36;;;;;;;27.80;15.90;;;5.10;65.10;;;;;;5024778;28;20198;-65
2023/02/08 09:47:23;;;;;;;26.87;15.83;;;5.10;64.60;;;;;;5035779;28;20200;-64
2023/02/08 09:49:57;;;;;;;24.00;15.20;;;5.20;64.30;;;;;;5033026;28;20207;-65
2023/02/08 09:52:49;;;;;;;25.40;15.03;;;5.20;63.00;;;;;;5032472;28;20212;-64
2023/02/08 09:55:20;;;;;;;29.70;16.97;;;5.20;63.80;;;;;;5024452;28;20236;-66
2023/02/08 09:57:50;;;;;;;24.13;16.33;;;5.10;63.70;;;;;;5036122;28;20207;-64
2023/02/08 10:00:23;;;;;;;28.57;16.47;;;5.10;63.70;;;;;;5036140;28;20255;-65
2023/02/08 10:02:53;;;;;;;28.47;16.37;;;5.20;63.70;;;;;;5038613;28;20199;-65
2023/02/08 10:05:23;;;;;;;31.00;17.40;;;5.10;63.40;;;;;;5033972;28;20312;-64
2023/02/08 10:07:50;;;;;;;24.47;17.20;;;5.10;64.00;;;;;;5039377;28;20244;-64
2023/02/08 10:10:32;;;;;;;23.87;15.50;;;5.10;63.90;;;;;;5028973;28;20210;-66
2023/02/08 10:13:08;;;;;;;25.60;16.40;;;5.10;64.50;;;;;;5032262;28;20207;-64
2023/02/08 10:15:54;;;;;;;27.50;16.23;;;5.10;64.20;;;;;;5039453;28;20202;-63
2023/02/08 10:18:45;;;;;;;28.90;15.57;;;5.10;64.40;;;;;;5031765;28;20219;-65
2023/02/08 10:21:34;;;;;;;23.43;14.73;;;5.20;64.40;;;;;;5032125;28;20212;-65
2023/02/08 10:24:10;;;;;;;26.63;17.07;;;5.30;64.60;;;;;;5032611;28;20549;-65
2023/02/08 10:27:13;;;;;;;25.53;15.90;;;5.40;64.20;;;;;;5037237;28;20309;-64
2023/02/08 10:29:55;;;;;;;23.93;14.67;;;5.50;63.90;;;;;;5032927;28;20278;-63
2023/02/08 10:32:22;;;;;;;29.47;16.40;;;5.60;63.80;;;;;;5033619;28;20697;-63
2023/02/08 10:35:01;;;;;;;26.10;16.13;;;5.70;63.60;;;;;;5029581;28;20203;-64
2023/02/08 10:37:33;;;;;;;28.10;15.87;;;5.80;63.40;;;;;;5036107;28;20488;-64
2023/02/08 10:40:34;;;;;;;25.67;15.53;;;5.90;63.60;;;;;;5036318;28;20544;-63
2023/02/08 10:43:29;;;;;;;24.10;14.43;;;6.10;62.40;;;;;;5030086;28;20199;-63
2023/02/08 10:46:17;;;;;;;23.83;14.70;;;6.20;62.40;;;;;;5038830;28;20194;-63
2023/02/08 10:49:02;;;;;;;22.73;14.40;;;6.30;61.90;;;;;;5030826;28;20280;-64
2023/02/08 10:51:30;;;;;;;28.27;14.50;;;6.30;61.90;;;;;;5033796;28;20199;-63
2023/02/08 10:53:57;;;;;;;25.50;15.37;;;6.40;60.90;;;;;;5037519;28;20629;-63
2023/02/08 10:56:42;;;;;;;28.93;13.90;;;6.40;61.30;;;;;;5043625;28;20539;-66
2023/02/08 10:59:22;;;;;;;23.57;14.60;;;6.50;61.10;;;;;;5038118;28;20221;-64
2023/02/08 11:01:51;;;;;;;23.90;13.77;;;6.50;61.50;;;;;;5045411;28;20276;-64
2023/02/08 11:04:19;;;;;;;24.50;14.83;;;6.60;60.60;;;;;;5037438;28;20199;-64
2023/02/08 11:06:48;;;;;;;28.20;13.43;;;6.70;60.40;;;;;;5034095;28;20245;-64
2023/02/08 11:09:22;;;;;;;24.37;14.13;;;6.90;60.80;;;;;;5040135;28;20202;-64
2023/02/08 11:11:51;;;;;;;28.13;14.67;;;7.00;59.70;;;;;;5030776;28;20510;-64
2023/02/08 11:14:24;;;;;;;23.97;14.63;;;7.00;59.60;;;;;;5035490;28;20204;-64
2023/02/08 11:17:03;;;;;;;21.03;13.33;;;7.10;60.00;;;;;;5040294;28;20200;-63
2023/02/08 11:19:30;;;;;;;24.80;14.23;;;7.10;59.90;;;;;;5040246;28;20215;-64
2023/02/08 11:22:00;;;;;;;21.73;13.53;;;7.20;59.90;;;;;;5043669;28;20203;-63
2023/02/08 11:24:42;;;;;;;24.13;13.93;;;7.30;59.80;;;;;;5039426;28;20290;-63
2023/02/08 11:27:27;;;;;;;24.17;14.80;;;7.40;60.00;;;;;;5043539;28;20199;-64
2023/02/08 11:30:12;;;;;;;22.40;13.67;;;7.50;59.60;;;;;;5037633;28;20283;-64
2023/02/08 11:32:40;;;;;;;25.43;13.93;;;7.50;59.50;;;;;;5044688;28;20214;-64
2023/02/08 11:35:21;;;;;;;24.67;12.77;;;7.60;58.70;;;;;;5035389;28;20194;-64
2023/02/08 11:37:53;;;;;;;23.30;12.73;;;7.60;58.30;;;;;;5036102;28;20191;-64
2023/02/08 11:40:24;;;;;;;25.93;14.43;;;7.70;58.60;;;;;;5037458;28;20218;-65
2023/02/08 11:42:51;;;;;;;22.60;12.30;;;7.70;57.80;;;;;;5031515;28;20207;-65
2023/02/08 11:45:26;;;;;;;22.40;12.37;;;7.60;58.60;;;;;;5040020;28;20200;-64
2023/02/08 11:47:53;;;;;;;21.87;12.03;;;7.60;59.60;;;;;;5044294;28;20542;-65
2023/02/08 11:50:30;;;;;;;21.93;12.40;;;7.60;59.00;;;;;;5037191;28;20206;-65
2023/02/08 11:53:00;;;;;;;22.90;13.30;;;7.50;59.20;;;;;;5038938;28;20206;-65
2023/02/08 11:55:30;;;;;;;30.00;12.30;;;7.50;59.50;;;;;;5040114;28;20203;-66
2023/02/08 11:57:57;;;;;;;19.40;11.60;;;7.60;60.60;;;;;;5035776;28;20226;-65
2023/02/08 12:00:28;;;;;;;20.00;11.23;;;7.70;58.80;;;;;;5036180;28;20211;-65
2023/02/08 12:03:00;;;;;;;23.63;10.90;;;7.80;58.60;;;;;;5041711;28;20194;-65
2023/02/08 12:05:43;;;;;;;22.57;11.07;;;7.90;58.80;;;;;;5018504;28;20236;-65
2023/02/08 12:08:26;;;;;;;29.13;12.80;;;8.00;57.50;;;;;;5035321;28;20264;-65
2023/02/08 12:11:06;;;;;;;19.23;10.50;;;7.90;57.80;;;;;;5042526;28;20632;-65
2023/02/08 12:13:50;;;;;;;14.47;9.27;;;7.80;57.90;;;;;;5041957;28;20209;-65
2023/02/08 12:16:53;;;;;;;16.63;9.20;;;7.70;57.80;;;;;;5040393;28;20209;-65
2023/02/08 12:19:49;;;;;;;16.10;9.97;;;7.60;57.50;;;;;;5035904;28;20218;-65
2023/02/08 12:22:24;;;;;;;15.00;8.80;;;7.40;57.50;;;;;;5037913;28;20215;-65
2023/02/08 12:25:13;;;;;;;18.57;9.57;;;7.30;57.70;;;;;;5035340;28;20210;-66
2023/02/08 12:28:06;;;;;;;15.43;9.67;;;7.30;57.50;;;;;;5033666;28;20524;-65
2023/02/08 12:30:39;;;;;;;16.43;10.07;;;7.20;57.70;;;;;;5034887;28;20241;-65
2023/02/08 12:33:22;;;;;;;18.33;9.97;;;7.10;57.80;;;;;;5035411;28;20203;-65
2023/02/08 12:36:17;;;;;;;11.87;8.73;;;7.20;57.20;;;;;;5032012;28;20510;-65
2023/02/08 12:42:28;;;;;;;14.57;8.63;;;7.40;56.80;;;;;;5045923;28;20195;-65
2023/02/08 12:45:13;;;;;;;14.67;9.77;;;7.60;56.30;;;;;;5037806;28;20194;-65
2023/02/08 12:48:10;;;;;;;20.63;10.67;;;7.70;56.00;;;;;;5035530;28;20203;-65
2023/02/08 12:50:57;;;;;;;17.17;10.03;;;7.80;57.20;;;;;;5039016;28;20199;-65
2023/02/08 12:53:50;;;;;;;20.77;10.27;;;7.70;57.40;;;;;;5030149;28;20218;-65
2023/02/08 12:56:23;;;;;;;15.17;9.77;;;7.50;57.30;;;;;;5035644;28;20199;-65
2023/02/08 12:58:54;;;;;;;19.17;10.33;;;7.40;57.60;;;;;;5028137;28;20190;-65
2023/02/08 13:01:41;;;;;;;21.37;10.40;;;7.30;57.70;;;;;;5030599;28;20516;-64
2023/02/08 13:04:17;;;;;;;21.13;9.40;;;7.20;56.80;;;;;;5040160;28;20198;-65
2023/02/08 13:06:55;;;;;;;17.77;10.03;;;7.10;56.90;;;;;;5043823;28;20629;-65
2023/02/08 13:09:39;;;;;;;15.57;9.93;;;7.10;57.50;;;;;;5041230;28;20213;-65